sensor_id;sensor_type;location;lat;lon;timestamp;P1;durP1;ratioP1;P2;durP2;ratioP2
18172;SDS011;9211;48.818;9.312;2023-02-07T00:01:05;11.25;;;6.57;;
18172;SDS011;9211;48.818;9.312;2023-02-07T00:03:33;12.67;;;7.50;;
18172;SDS011;9211;48.818;9.312;2023-02-07T00:06:03;13.25;;;7.10;;
18172;SDS011;9211;48.818;9.312;2023-02-07T00:08:31;13.00;;;7.50;;
18172;SDS011;9211;48.818;9.312;2023-02-07T00:11:02;14.18;;;7.50;;
18172;SDS011;9211;48.818;9.312;2023-02-07T00:13:29;14.32;;;7.55;;
18172;SDS011;9211;48.818;9.312;2023-02-07T00:15:58;12.45;;;7.15;;
18172;SDS011;9211;48.818;9.312;2023-02-07T00:18:25;12.80;;;7.55;;
18172;SDS011;9211;48.818;9.312;2023-02-07T00:20:58;13.02;;;7.70;;
18172;SDS011;9211;48.818;9.312;2023-02-07T00:23:26;13.82;;;7.68;;
18172;SDS011;9211;48.818;9.312;2023-02-07T00:25:53;13.02;;;7.45;;
18172;SDS011;9211;48.818;9.312;2023-02-07T00:28:21;14.03;;;8.03;;
18172;SDS011;9211;48.818;9.312;2023-02-07T00:30:47;13.77;;;7.50;;
18172;SDS011;9211;48.818;9.312;2023-02-07T00:33:16;15.70;;;7.75;;
18172;SDS011;9211;48.818;9.312;2023-02-07T00:35:43;13.38;;;7.78;;
18172;SDS011;9211;48.818;9.312;2023-02-07T00:38:10;13.40;;;7.50;;
18172;SDS011;9211;48.818;9.312;2023-02-07T00:40:37;14.23;;;7.95;;
18172;SDS011;9211;48.818;9.312;2023-02-07T00:43:04;13.07;;;7.75;;
18172;SDS011;9211;48.818;9.312;2023-02-07T00:45:31;13.68;;;8.35;;
18172;SDS011;9211;48.818;9.312;2023-02-07T00:47:58;14.00;;;8.05;;
18172;SDS011;9211;48.818;9.312;2023-02-07T00:50:27;14.35;;;8.23;;
18172;SDS011;9211;48.818;9.312;2023-02-07T00:52:54;15.32;;;8.68;;
18172;SDS011;9211;48.818;9.312;2023-02-07T00:55:22;17.47;;;8.97;;
18172;SDS011;9211;48.818;9.312;2023-02-07T00:57:49;15.10;;;8.60;;
18172;SDS011;9211;48.818;9.312;2023-02-07T01:00:16;17.25;;;9.45;;
18172;SDS011;9211;48.818;9.312;2023-02-07T01:02:45;17.02;;;9.52;;
18172;SDS011;9211;48.818;9.312;2023-02-07T01:05:12;18.58;;;10.35;;
18172;SDS011;9211;48.818;9.312;2023-02-07T01:07:40;18.15;;;10.00;;
18172;SDS011;9211;48.818;9.312;2023-02-07T01:10:07;17.25;;;9.77;;
18172;SDS011;9211;48.818;9.312;2023-02-07T01:12:35;18.80;;;9.98;;
18172;SDS011;9211;48.818;9.312;2023-02-07T01:15:02;20.05;;;10.27;;
18172;SDS011;9211;48.818;9.312;2023-02-07T01:17:31;16.95;;;9.65;;
18172;SDS011;9211;48.818;9.312;2023-02-07T01:19:58;16.13;;;9.60;;
18172;SDS011;9211;48.818;9.312;2023-02-07T01:22:26;17.33;;;10.40;;
18172;SDS011;9211;48.818;9.312;2023-02-07T01:24:54;18.65;;;10.23;;
18172;SDS011;9211;48.818;9.312;2023-02-07T01:27:21;18.60;;;10.13;;
18172;SDS011;9211;48.818;9.312;2023-02-07T01:29:49;18.48;;;10.50;;
18172;SDS011;9211;48.818;9.312;2023-02-07T01:32:16;19.65;;;10.38;;
18172;SDS011;9211;48.818;9.312;2023-02-07T01:34:43;22.63;;;11.13;;
18172;SDS011;9211;48.818;9.312;2023-02-07T01:37:10;20.88;;;11.48;;
18172;SDS011;9211;48.818;9.312;2023-02-07T01:39:37;20.48;;;11.38;;
18172;SDS011;9211;48.818;9.312;2023-02-07T01:42:08;21.02;;;11.63;;
18172;SDS011;9211;48.818;9.312;2023-02-07T01:45:01;20.48;;;11.60;;
18172;SDS011;9211;48.818;9.312;2023-02-07T01:47:34;20.50;;;11.13;;
18172;SDS011;9211;48.818;9.312;2023-02-07T01:50:03;20.47;;;11.17;;
18172;SDS011;9211;48.818;9.312;2023-02-07T01:52:31;19.98;;;11.50;;
18172;SDS011;9211;48.818;9.312;2023-02-07T01:55:00;19.42;;;11.05;;
18172;SDS011;9211;48.818;9.312;2023-02-07T01:57:31;20.58;;;11.43;;
18172;SDS011;9211;48.818;9.312;2023-02-07T01:59:58;18.63;;;10.77;;
18172;SDS011;9211;48.818;9.312;2023-02-07T02:02:27;18.30;;;11.13;;
18172;SDS011;9211;48.818;9.312;2023-02-07T02:04:58;21.38;;;11.50;;
18172;SDS011;9211;48.818;9.312;2023-02-07T02:07:25;19.95;;;11.35;;
18172;SDS011;9211;48.818;9.312;2023-02-07T02:09:56;19.25;;;11.98;;
18172;SDS011;9211;48.818;9.312;2023-02-07T02:12:33;22.27;;;12.03;;
18172;SDS011;9211;48.818;9.312;2023-02-07T02:15:17;20.27;;;12.20;;
18172;SDS011;9211;48.818;9.312;2023-02-07T02:17:57;20.67;;;11.93;;
18172;SDS011;9211;48.818;9.312;2023-02-07T02:20:44;19.02;;;11.93;;
18172;SDS011;9211;48.818;9.312;2023-02-07T02:23:42;21.38;;;11.98;;
18172;SDS011;9211;48.818;9.312;2023-02-07T02:26:30;22.70;;;12.43;;
18172;SDS011;9211;48.818;9.312;2023-02-07T02:29:41;20.58;;;12.48;;
18172;SDS011;9211;48.818;9.312;2023-02-07T02:32:44;21.30;;;12.47;;
18172;SDS011;9211;48.818;9.312;2023-02-07T02:35:34;22.08;;;12.63;;
18172;SDS011;9211;48.818;9.312;2023-02-07T02:38:12;22.87;;;13.17;;
18172;SDS011;9211;48.818;9.312;2023-02-07T02:40:47;24.40;;;13.18;;
18172;SDS011;9211;48.818;9.312;2023-02-07T02:43:19;21.70;;;13.23;;
18172;SDS011;9211;48.818;9.312;2023-02-07T02:45:55;22.35;;;13.00;;
18172;SDS011;9211;48.818;9.312;2023-02-07T02:48:26;22.27;;;13.27;;
18172;SDS011;9211;48.818;9.312;2023-02-07T02:50:54;24.90;;;13.48;;
18172;SDS011;9211;48.818;9.312;2023-02-07T02:53:21;24.58;;;13.73;;
18172;SDS011;9211;48.818;9.312;2023-02-07T02:59:12;25.05;;;13.80;;
18172;SDS011;9211;48.818;9.312;2023-02-07T03:01:57;24.93;;;13.83;;
18172;SDS011;9211;48.818;9.312;2023-02-07T03:04:41;23.40;;;14.27;;
18172;SDS011;9211;48.818;9.312;2023-02-07T03:07:26;24.27;;;14.50;;
18172;SDS011;9211;48.818;9.312;2023-02-07T03:10:12;22.37;;;13.90;;
18172;SDS011;9211;48.818;9.312;2023-02-07T03:12:47;24.70;;;14.53;;
18172;SDS011;9211;48.818;9.312;2023-02-07T03:15:23;25.13;;;14.47;;
18172;SDS011;9211;48.818;9.312;2023-02-07T03:17:58;25.63;;;14.68;;
18172;SDS011;9211;48.818;9.312;2023-02-07T03:20:33;24.23;;;14.60;;
18172;SDS011;9211;48.818;9.312;2023-02-07T03:23:02;26.85;;;14.73;;
18172;SDS011;9211;48.818;9.312;2023-02-07T03:25:31;25.27;;;14.38;;
18172;SDS011;9211;48.818;9.312;2023-02-07T03:27:59;26.40;;;15.23;;
18172;SDS011;9211;48.818;9.312;2023-02-07T03:30:27;23.95;;;13.98;;
18172;SDS011;9211;48.818;9.312;2023-02-07T03:32:58;22.58;;;14.00;;
18172;SDS011;9211;48.818;9.312;2023-02-07T03:35:36;24.50;;;14.70;;
18172;SDS011;9211;48.818;9.312;2023-02-07T03:38:09;23.33;;;13.93;;
18172;SDS011;9211;48.818;9.312;2023-02-07T03:40:38;24.48;;;14.43;;
18172;SDS011;9211;48.818;9.312;2023-02-07T03:43:09;25.42;;;14.43;;
18172;SDS011;9211;48.818;9.312;2023-02-07T03:45:40;24.70;;;14.27;;
18172;SDS011;9211;48.818;9.312;2023-02-07T03:48:07;24.70;;;13.98;;
18172;SDS011;9211;48.818;9.312;2023-02-07T03:50:36;23.83;;;14.10;;
18172;SDS011;9211;48.818;9.312;2023-02-07T03:53:03;23.33;;;13.88;;
18172;SDS011;9211;48.818;9.312;2023-02-07T03:55:31;27.67;;;15.27;;
18172;SDS011;9211;48.818;9.312;2023-02-07T03:57:58;26.60;;;14.23;;
18172;SDS011;9211;48.818;9.312;2023-02-07T04:00:25;27.58;;;15.30;;
18172;SDS011;9211;48.818;9.312;2023-02-07T04:02:52;24.05;;;14.30;;
18172;SDS011;9211;48.818;9.312;2023-02-07T04:05:19;24.50;;;14.50;;
18172;SDS011;9211;48.818;9.312;2023-02-07T04:07:47;25.92;;;14.38;;
18172;SDS011;9211;48.818;9.312;2023-02-07T04:10:14;26.63;;;14.82;;
18172;SDS011;9211;48.818;9.312;2023-02-07T04:12:41;25.48;;;14.60;;
18172;SDS011;9211;48.818;9.312;2023-02-07T04:15:08;24.27;;;14.35;;
18172;SDS011;9211;48.818;9.312;2023-02-07T04:17:36;25.00;;;14.50;;
18172;SDS011;9211;48.818;9.312;2023-02-07T04:20:04;25.23;;;14.50;;
18172;SDS011;9211;48.818;9.312;2023-02-07T04:22:32;23.70;;;14.40;;
18172;SDS011;9211;48.818;9.312;2023-02-07T04:25:00;27.00;;;15.27;;
18172;SDS011;9211;48.818;9.312;2023-02-07T04:27:27;27.42;;;15.10;;
18172;SDS011;9211;48.818;9.312;2023-02-07T04:29:54;27.55;;;15.45;;
18172;SDS011;9211;48.818;9.312;2023-02-07T04:32:22;24.88;;;14.18;;
18172;SDS011;9211;48.818;9.312;2023-02-07T04:34:49;25.55;;;14.38;;
18172;SDS011;9211;48.818;9.312;2023-02-07T04:37:16;26.48;;;14.85;;
18172;SDS011;9211;48.818;9.312;2023-02-07T04:39:43;25.98;;;14.73;;
18172;SDS011;9211;48.818;9.312;2023-02-07T04:42:12;26.90;;;14.48;;
18172;SDS011;9211;48.818;9.312;2023-02-07T04:44:39;26.58;;;15.05;;
18172;SDS011;9211;48.818;9.312;2023-02-07T04:47:06;26.80;;;14.50;;
18172;SDS011;9211;48.818;9.312;2023-02-07T04:49:33;25.65;;;13.82;;
18172;SDS011;9211;48.818;9.312;2023-02-07T04:52:00;26.13;;;14.90;;
18172;SDS011;9211;48.818;9.312;2023-02-07T04:54:27;25.60;;;14.20;;
18172;SDS011;9211;48.818;9.312;2023-02-07T04:56:54;24.33;;;14.38;;
18172;SDS011;9211;48.818;9.312;2023-02-07T04:59:22;25.65;;;13.90;;
18172;SDS011;9211;48.818;9.312;2023-02-07T05:01:49;26.17;;;14.60;;
18172;SDS011;9211;48.818;9.312;2023-02-07T05:04:16;23.58;;;13.70;;
18172;SDS011;9211;48.818;9.312;2023-02-07T05:06:43;25.98;;;14.70;;
18172;SDS011;9211;48.818;9.312;2023-02-07T05:09:10;26.10;;;14.35;;
18172;SDS011;9211;48.818;9.312;2023-02-07T05:11:37;25.73;;;14.97;;
18172;SDS011;9211;48.818;9.312;2023-02-07T05:14:04;27.23;;;15.40;;
18172;SDS011;9211;48.818;9.312;2023-02-07T05:16:32;28.23;;;15.10;;
18172;SDS011;9211;48.818;9.312;2023-02-07T05:18:59;25.52;;;14.80;;
18172;SDS011;9211;48.818;9.312;2023-02-07T05:21:26;24.77;;;14.43;;
18172;SDS011;9211;48.818;9.312;2023-02-07T05:23:53;27.88;;;14.93;;
18172;SDS011;9211;48.818;9.312;2023-02-07T05:26:20;28.52;;;14.43;;
18172;SDS011;9211;48.818;9.312;2023-02-07T05:28:47;28.57;;;15.17;;
18172;SDS011;9211;48.818;9.312;2023-02-07T05:31:14;29.10;;;14.57;;
18172;SDS011;9211;48.818;9.312;2023-02-07T05:33:42;26.38;;;14.27;;
18172;SDS011;9211;48.818;9.312;2023-02-07T05:36:08;26.70;;;14.38;;
18172;SDS011;9211;48.818;9.312;2023-02-07T05:38:35;28.17;;;15.27;;
18172;SDS011;9211;48.818;9.312;2023-02-07T05:41:03;27.70;;;14.63;;
18172;SDS011;9211;48.818;9.312;2023-02-07T05:43:30;26.63;;;13.73;;
18172;SDS011;9211;48.818;9.312;2023-02-07T05:45:57;27.75;;;14.18;;
18172;SDS011;9211;48.818;9.312;2023-02-07T05:48:24;23.80;;;13.88;;
18172;SDS011;9211;48.818;9.312;2023-02-07T05:50:52;30.33;;;15.00;;
18172;SDS011;9211;48.818;9.312;2023-02-07T05:53:19;28.35;;;14.23;;
18172;SDS011;9211;48.818;9.312;2023-02-07T05:55:46;26.50;;;14.40;;
18172;SDS011;9211;48.818;9.312;2023-02-07T05:58:16;29.40;;;14.65;;
18172;SDS011;9211;48.818;9.312;2023-02-07T06:00:43;27.98;;;14.77;;
18172;SDS011;9211;48.818;9.312;2023-02-07T06:03:11;26.13;;;14.63;;
18172;SDS011;9211;48.818;9.312;2023-02-07T06:05:37;25.35;;;14.32;;
18172;SDS011;9211;48.818;9.312;2023-02-07T06:08:06;24.60;;;14.27;;
18172;SDS011;9211;48.818;9.312;2023-02-07T06:10:33;24.63;;;13.95;;
18172;SDS011;9211;48.818;9.312;2023-02-07T06:13:00;24.33;;;14.00;;
18172;SDS011;9211;48.818;9.312;2023-02-07T06:15:27;25.40;;;14.40;;
18172;SDS011;9211;48.818;9.312;2023-02-07T06:17:54;26.98;;;14.85;;
18172;SDS011;9211;48.818;9.312;2023-02-07T06:20:21;30.73;;;16.83;;
18172;SDS011;9211;48.818;9.312;2023-02-07T06:22:48;31.83;;;16.80;;
18172;SDS011;9211;48.818;9.312;2023-02-07T06:25:17;29.67;;;15.85;;
18172;SDS011;9211;48.818;9.312;2023-02-07T06:27:45;28.80;;;15.40;;
18172;SDS011;9211;48.818;9.312;2023-02-07T06:30:12;25.57;;;14.53;;
18172;SDS011;9211;48.818;9.312;2023-02-07T06:32:39;28.83;;;15.07;;
18172;SDS011;9211;48.818;9.312;2023-02-07T06:35:06;25.58;;;14.23;;
18172;SDS011;9211;48.818;9.312;2023-02-07T06:37:34;25.95;;;14.23;;
18172;SDS011;9211;48.818;9.312;2023-02-07T06:40:00;26.48;;;14.68;;
18172;SDS011;9211;48.818;9.312;2023-02-07T06:42:29;24.88;;;14.07;;
18172;SDS011;9211;48.818;9.312;2023-02-07T06:44:56;32.63;;;14.88;;
18172;SDS011;9211;48.818;9.312;2023-02-07T06:47:23;28.73;;;15.00;;
18172;SDS011;9211;48.818;9.312;2023-02-07T06:49:50;29.80;;;15.23;;
18172;SDS011;9211;48.818;9.312;2023-02-07T06:52:17;26.75;;;15.02;;
18172;SDS011;9211;48.818;9.312;2023-02-07T06:54:44;30.15;;;14.93;;
18172;SDS011;9211;48.818;9.312;2023-02-07T06:57:11;26.30;;;14.65;;
18172;SDS011;9211;48.818;9.312;2023-02-07T06:59:39;25.48;;;14.30;;
18172;SDS011;9211;48.818;9.312;2023-02-07T07:02:08;27.08;;;14.73;;
18172;SDS011;9211;48.818;9.312;2023-02-07T07:04:35;26.65;;;14.40;;
18172;SDS011;9211;48.818;9.312;2023-02-07T07:07:02;31.02;;;14.60;;
18172;SDS011;9211;48.818;9.312;2023-02-07T07:09:29;28.77;;;14.83;;
18172;SDS011;9211;48.818;9.312;2023-02-07T07:11:56;30.60;;;15.45;;
18172;SDS011;9211;48.818;9.312;2023-02-07T07:14:23;37.45;;;17.50;;
18172;SDS011;9211;48.818;9.312;2023-02-07T07:16:51;34.45;;;17.00;;
18172;SDS011;9211;48.818;9.312;2023-02-07T07:19:19;38.40;;;18.15;;
18172;SDS011;9211;48.818;9.312;2023-02-07T07:21:46;35.03;;;17.25;;
18172;SDS011;9211;48.818;9.312;2023-02-07T07:24:13;38.47;;;18.33;;
18172;SDS011;9211;48.818;9.312;2023-02-07T07:26:40;39.03;;;18.33;;
18172;SDS011;9211;48.818;9.312;2023-02-07T07:29:07;40.10;;;18.58;;
18172;SDS011;9211;48.818;9.312;2023-02-07T07:31:34;35.42;;;17.05;;
18172;SDS011;9211;48.818;9.312;2023-02-07T07:34:02;33.05;;;16.08;;
18172;SDS011;9211;48.818;9.312;2023-02-07T07:36:29;29.15;;;14.70;;
18172;SDS011;9211;48.818;9.312;2023-02-07T07:38:56;26.70;;;13.82;;
18172;SDS011;9211;48.818;9.312;2023-02-07T07:41:23;24.00;;;12.90;;
18172;SDS011;9211;48.818;9.312;2023-02-07T07:43:50;24.83;;;12.47;;
18172;SDS011;9211;48.818;9.312;2023-02-07T07:46:17;26.60;;;13.35;;
18172;SDS011;9211;48.818;9.312;2023-02-07T07:48:44;23.45;;;12.57;;
18172;SDS011;9211;48.818;9.312;2023-02-07T07:51:12;23.48;;;12.52;;
18172;SDS011;9211;48.818;9.312;2023-02-07T07:53:39;23.65;;;12.52;;
18172;SDS011;9211;48.818;9.312;2023-02-07T07:56:06;23.92;;;12.50;;
18172;SDS011;9211;48.818;9.312;2023-02-07T07:58:33;20.92;;;11.68;;
18172;SDS011;9211;48.818;9.312;2023-02-07T08:01:00;20.45;;;11.20;;
18172;SDS011;9211;48.818;9.312;2023-02-07T08:03:27;25.05;;;12.00;;
18172;SDS011;9211;48.818;9.312;2023-02-07T08:05:54;22.02;;;11.88;;
18172;SDS011;9211;48.818;9.312;2023-02-07T08:08:22;21.38;;;10.77;;
18172;SDS011;9211;48.818;9.312;2023-02-07T08:10:49;18.50;;;10.52;;
18172;SDS011;9211;48.818;9.312;2023-02-07T08:13:16;19.85;;;9.95;;
18172;SDS011;9211;48.818;9.312;2023-02-07T08:15:44;20.00;;;9.63;;
18172;SDS011;9211;48.818;9.312;2023-02-07T08:18:11;15.88;;;9.55;;
18172;SDS011;9211;48.818;9.312;2023-02-07T08:20:38;16.80;;;9.75;;
18172;SDS011;9211;48.818;9.312;2023-02-07T08:23:05;18.60;;;10.07;;
18172;SDS011;9211;48.818;9.312;2023-02-07T08:25:33;16.73;;;9.40;;
18172;SDS011;9211;48.818;9.312;2023-02-07T08:28:00;18.10;;;9.68;;
18172;SDS011;9211;48.818;9.312;2023-02-07T08:30:27;18.23;;;9.53;;
18172;SDS011;9211;48.818;9.312;2023-02-07T08:32:56;18.30;;;10.10;;
18172;SDS011;9211;48.818;9.312;2023-02-07T08:35:23;19.73;;;10.02;;
18172;SDS011;9211;48.818;9.312;2023-02-07T08:37:50;17.67;;;9.83;;
18172;SDS011;9211;48.818;9.312;2023-02-07T08:40:17;19.00;;;10.13;;
18172;SDS011;9211;48.818;9.312;2023-02-07T08:42:46;19.33;;;9.77;;
18172;SDS011;9211;48.818;9.312;2023-02-07T08:45:13;19.85;;;10.65;;
18172;SDS011;9211;48.818;9.312;2023-02-07T08:47:41;19.42;;;10.32;;
18172;SDS011;9211;48.818;9.312;2023-02-07T08:50:09;19.77;;;10.48;;
18172;SDS011;9211;48.818;9.312;2023-02-07T08:52:36;19.17;;;10.55;;
18172;SDS011;9211;48.818;9.312;2023-02-07T08:55:04;19.27;;;10.52;;
18172;SDS011;9211;48.818;9.312;2023-02-07T08:57:31;21.98;;;10.40;;
18172;SDS011;9211;48.818;9.312;2023-02-07T09:00:00;19.50;;;10.02;;
18172;SDS011;9211;48.818;9.312;2023-02-07T09:02:27;18.40;;;9.55;;
18172;SDS011;9211;48.818;9.312;2023-02-07T09:04:54;17.20;;;9.90;;
18172;SDS011;9211;48.818;9.312;2023-02-07T09:07:21;16.73;;;9.75;;
18172;SDS011;9211;48.818;9.312;2023-02-07T09:09:48;17.83;;;9.57;;
18172;SDS011;9211;48.818;9.312;2023-02-07T09:12:15;19.70;;;9.45;;
18172;SDS011;9211;48.818;9.312;2023-02-07T09:14:42;17.40;;;10.23;;
18172;SDS011;9211;48.818;9.312;2023-02-07T09:17:11;17.77;;;10.10;;
18172;SDS011;9211;48.818;9.312;2023-02-07T09:19:37;18.83;;;10.30;;
18172;SDS011;9211;48.818;9.312;2023-02-07T09:22:05;18.42;;;10.35;;
18172;SDS011;9211;48.818;9.312;2023-02-07T09:24:32;18.15;;;10.10;;
18172;SDS011;9211;48.818;9.312;2023-02-07T09:26:59;18.92;;;10.40;;
18172;SDS011;9211;48.818;9.312;2023-02-07T09:29:26;20.42;;;10.48;;
18172;SDS011;9211;48.818;9.312;2023-02-07T09:31:53;18.08;;;10.40;;
18172;SDS011;9211;48.818;9.312;2023-02-07T09:34:22;20.70;;;10.23;;
18172;SDS011;9211;48.818;9.312;2023-02-07T09:36:49;19.75;;;10.10;;
18172;SDS011;9211;48.818;9.312;2023-02-07T09:39:16;18.50;;;10.57;;
18172;SDS011;9211;48.818;9.312;2023-02-07T09:41:46;19.88;;;10.32;;
18172;SDS011;9211;48.818;9.312;2023-02-07T09:44:23;16.73;;;9.57;;
18172;SDS011;9211;48.818;9.312;2023-02-07T09:46:58;17.23;;;10.20;;
18172;SDS011;9211;48.818;9.312;2023-02-07T09:49:33;16.65;;;9.35;;
18172;SDS011;9211;48.818;9.312;2023-02-07T09:52:02;18.95;;;10.32;;
18172;SDS011;9211;48.818;9.312;2023-02-07T09:54:32;17.70;;;10.13;;
18172;SDS011;9211;48.818;9.312;2023-02-07T09:57:05;17.45;;;9.90;;
18172;SDS011;9211;48.818;9.312;2023-02-07T09:59:40;16.88;;;9.77;;
18172;SDS011;9211;48.818;9.312;2023-02-07T10:02:20;16.58;;;9.70;;
18172;SDS011;9211;48.818;9.312;2023-02-07T10:04:52;22.33;;;10.20;;
18172;SDS011;9211;48.818;9.312;2023-02-07T10:07:22;20.17;;;10.13;;
18172;SDS011;9211;48.818;9.312;2023-02-07T10:09:49;17.90;;;10.18;;
18172;SDS011;9211;48.818;9.312;2023-02-07T10:12:26;17.83;;;10.13;;
18172;SDS011;9211;48.818;9.312;2023-02-07T10:15:21;21.08;;;11.25;;
18172;SDS011;9211;48.818;9.312;2023-02-07T10:18:16;21.70;;;11.07;;
18172;SDS011;9211;48.818;9.312;2023-02-07T10:20:56;21.55;;;10.93;;
18172;SDS011;9211;48.818;9.312;2023-02-07T10:23:32;20.70;;;11.00;;
18172;SDS011;9211;48.818;9.312;2023-02-07T10:26:11;17.63;;;10.00;;
18172;SDS011;9211;48.818;9.312;2023-02-07T10:31:54;17.40;;;10.57;;
18172;SDS011;9211;48.818;9.312;2023-02-07T10:34:27;16.57;;;9.70;;
18172;SDS011;9211;48.818;9.312;2023-02-07T10:37:00;18.33;;;10.10;;
18172;SDS011;9211;48.818;9.312;2023-02-07T10:39:38;16.40;;;10.00;;
18172;SDS011;9211;48.818;9.312;2023-02-07T10:42:08;17.00;;;9.85;;
18172;SDS011;9211;48.818;9.312;2023-02-07T10:44:41;15.68;;;9.07;;
18172;SDS011;9211;48.818;9.312;2023-02-07T10:47:11;15.57;;;9.27;;
18172;SDS011;9211;48.818;9.312;2023-02-07T10:49:40;16.77;;;9.50;;
18172;SDS011;9211;48.818;9.312;2023-02-07T10:52:16;15.80;;;9.40;;
18172;SDS011;9211;48.818;9.312;2023-02-07T10:54:54;16.30;;;9.15;;
18172;SDS011;9211;48.818;9.312;2023-02-07T10:57:22;17.38;;;9.38;;
18172;SDS011;9211;48.818;9.312;2023-02-07T10:59:56;16.55;;;9.50;;
18172;SDS011;9211;48.818;9.312;2023-02-07T11:02:35;14.40;;;9.00;;
18172;SDS011;9211;48.818;9.312;2023-02-07T11:05:26;15.77;;;9.27;;
18172;SDS011;9211;48.818;9.312;2023-02-07T11:07:57;16.55;;;9.85;;
18172;SDS011;9211;48.818;9.312;2023-02-07T11:10:26;15.50;;;9.50;;
18172;SDS011;9211;48.818;9.312;2023-02-07T11:12:57;16.08;;;9.55;;
18172;SDS011;9211;48.818;9.312;2023-02-07T11:15:27;17.13;;;9.82;;
18172;SDS011;9211;48.818;9.312;2023-02-07T11:18:04;15.10;;;9.47;;
18172;SDS011;9211;48.818;9.312;2023-02-07T11:20:33;15.20;;;9.82;;
18172;SDS011;9211;48.818;9.312;2023-02-07T11:23:04;19.42;;;10.32;;
18172;SDS011;9211;48.818;9.312;2023-02-07T11:25:37;17.05;;;10.02;;
18172;SDS011;9211;48.818;9.312;2023-02-07T11:28:06;19.17;;;10.00;;
18172;SDS011;9211;48.818;9.312;2023-02-07T11:30:41;14.77;;;9.38;;
18172;SDS011;9211;48.818;9.312;2023-02-07T11:33:09;15.77;;;9.50;;
18172;SDS011;9211;48.818;9.312;2023-02-07T11:38:31;18.23;;;9.75;;
18172;SDS011;9211;48.818;9.312;2023-02-07T11:41:02;15.20;;;9.40;;
18172;SDS011;9211;48.818;9.312;2023-02-07T11:43:31;16.48;;;9.32;;
18172;SDS011;9211;48.818;9.312;2023-02-07T11:46:00;19.42;;;9.75;;
18172;SDS011;9211;48.818;9.312;2023-02-07T11:48:32;16.73;;;9.80;;
18172;SDS011;9211;48.818;9.312;2023-02-07T11:51:02;14.05;;;8.75;;
18172;SDS011;9211;48.818;9.312;2023-02-07T11:53:34;17.02;;;9.07;;
18172;SDS011;9211;48.818;9.312;2023-02-07T11:56:04;17.88;;;9.48;;
18172;SDS011;9211;48.818;9.312;2023-02-07T11:58:33;16.63;;;8.93;;
18172;SDS011;9211;48.818;9.312;2023-02-07T12:01:03;15.23;;;9.00;;
18172;SDS011;9211;48.818;9.312;2023-02-07T12:03:32;13.80;;;8.40;;
18172;SDS011;9211;48.818;9.312;2023-02-07T12:06:06;17.08;;;10.05;;
18172;SDS011;9211;48.818;9.312;2023-02-07T12:08:39;15.37;;;9.40;;
18172;SDS011;9211;48.818;9.312;2023-02-07T12:11:10;15.00;;;9.02;;
18172;SDS011;9211;48.818;9.312;2023-02-07T12:13:41;13.50;;;8.57;;
18172;SDS011;9211;48.818;9.312;2023-02-07T12:16:15;16.70;;;9.40;;
18172;SDS011;9211;48.818;9.312;2023-02-07T12:18:47;15.37;;;8.93;;
18172;SDS011;9211;48.818;9.312;2023-02-07T12:21:20;15.50;;;9.55;;
18172;SDS011;9211;48.818;9.312;2023-02-07T12:23:55;15.52;;;9.43;;
18172;SDS011;9211;48.818;9.312;2023-02-07T12:26:25;14.25;;;8.48;;
18172;SDS011;9211;48.818;9.312;2023-02-07T12:29:03;14.00;;;8.68;;
18172;SDS011;9211;48.818;9.312;2023-02-07T12:31:44;15.25;;;8.95;;
18172;SDS011;9211;48.818;9.312;2023-02-07T12:34:17;14.90;;;8.70;;
18172;SDS011;9211;48.818;9.312;2023-02-07T12:36:49;15.20;;;8.60;;
18172;SDS011;9211;48.818;9.312;2023-02-07T12:39:23;15.70;;;8.43;;
18172;SDS011;9211;48.818;9.312;2023-02-07T12:42:05;14.80;;;8.50;;
18172;SDS011;9211;48.818;9.312;2023-02-07T12:44:46;12.63;;;8.20;;
18172;SDS011;9211;48.818;9.312;2023-02-07T12:47:20;15.97;;;8.50;;
18172;SDS011;9211;48.818;9.312;2023-02-07T12:49:58;13.80;;;8.10;;
18172;SDS011;9211;48.818;9.312;2023-02-07T12:52:38;14.10;;;8.45;;
18172;SDS011;9211;48.818;9.312;2023-02-07T12:55:15;14.13;;;8.85;;
18172;SDS011;9211;48.818;9.312;2023-02-07T12:57:52;13.57;;;8.27;;
18172;SDS011;9211;48.818;9.312;2023-02-07T13:00:26;12.82;;;8.00;;
18172;SDS011;9211;48.818;9.312;2023-02-07T13:03:03;13.53;;;7.80;;
18172;SDS011;9211;48.818;9.312;2023-02-07T13:05:46;12.43;;;7.68;;
18172;SDS011;9211;48.818;9.312;2023-02-07T13:08:29;13.25;;;7.85;;
18172;SDS011;9211;48.818;9.312;2023-02-07T13:11:09;12.05;;;7.05;;
18172;SDS011;9211;48.818;9.312;2023-02-07T13:13:49;11.68;;;6.88;;
18172;SDS011;9211;48.818;9.312;2023-02-07T13:16:25;13.38;;;7.28;;
18172;SDS011;9211;48.818;9.312;2023-02-07T13:19:01;11.30;;;6.53;;
18172;SDS011;9211;48.818;9.312;2023-02-07T13:21:37;11.10;;;6.78;;
18172;SDS011;9211;48.818;9.312;2023-02-07T13:24:09;11.63;;;6.80;;
18172;SDS011;9211;48.818;9.312;2023-02-07T13:26:41;10.55;;;6.47;;
18172;SDS011;9211;48.818;9.312;2023-02-07T13:29:14;10.47;;;6.47;;
18172;SDS011;9211;48.818;9.312;2023-02-07T13:31:43;10.13;;;6.37;;
18172;SDS011;9211;48.818;9.312;2023-02-07T13:34:13;11.52;;;6.70;;
18172;SDS011;9211;48.818;9.312;2023-02-07T13:36:43;10.00;;;6.25;;
18172;SDS011;9211;48.818;9.312;2023-02-07T13:39:13;12.20;;;6.70;;
18172;SDS011;9211;48.818;9.312;2023-02-07T13:42:05;10.80;;;6.73;;
18172;SDS011;9211;48.818;9.312;2023-02-07T13:44:41;11.88;;;6.35;;
18172;SDS011;9211;48.818;9.312;2023-02-07T13:47:26;9.97;;;6.23;;
18172;SDS011;9211;48.818;9.312;2023-02-07T13:50:10;10.45;;;6.25;;
18172;SDS011;9211;48.818;9.312;2023-02-07T13:52:45;10.00;;;6.27;;
18172;SDS011;9211;48.818;9.312;2023-02-07T13:55:21;9.85;;;6.18;;
18172;SDS011;9211;48.818;9.312;2023-02-07T13:57:54;11.35;;;6.28;;
18172;SDS011;9211;48.818;9.312;2023-02-07T14:03:27;11.88;;;6.15;;
18172;SDS011;9211;48.818;9.312;2023-02-07T14:06:11;9.23;;;5.70;;
18172;SDS011;9211;48.818;9.312;2023-02-07T14:08:41;9.25;;;5.95;;
18172;SDS011;9211;48.818;9.312;2023-02-07T14:11:17;11.52;;;6.03;;
18172;SDS011;9211;48.818;9.312;2023-02-07T14:14:12;11.93;;;6.00;;
18172;SDS011;9211;48.818;9.312;2023-02-07T14:16:46;9.98;;;5.70;;
18172;SDS011;9211;48.818;9.312;2023-02-07T14:19:15;10.45;;;6.03;;
18172;SDS011;9211;48.818;9.312;2023-02-07T14:22:20;10.88;;;5.80;;
18172;SDS011;9211;48.818;9.312;2023-02-07T14:28:14;10.95;;;5.80;;
18172;SDS011;9211;48.818;9.312;2023-02-07T14:33:38;9.25;;;5.20;;
18172;SDS011;9211;48.818;9.312;2023-02-07T14:36:22;9.25;;;5.30;;
18172;SDS011;9211;48.818;9.312;2023-02-07T14:39:00;10.60;;;5.33;;
18172;SDS011;9211;48.818;9.312;2023-02-07T14:41:31;7.65;;;5.00;;
18172;SDS011;9211;48.818;9.312;2023-02-07T14:44:01;9.70;;;5.47;;
18172;SDS011;9211;48.818;9.312;2023-02-07T14:46:31;9.30;;;5.22;;
18172;SDS011;9211;48.818;9.312;2023-02-07T14:49:01;9.03;;;5.10;;
18172;SDS011;9211;48.818;9.312;2023-02-07T14:51:37;9.20;;;5.28;;
18172;SDS011;9211;48.818;9.312;2023-02-07T14:54:10;8.13;;;5.18;;
18172;SDS011;9211;48.818;9.312;2023-02-07T14:56:44;9.15;;;5.40;;
18172;SDS011;9211;48.818;9.312;2023-02-07T14:59:22;8.70;;;5.00;;
18172;SDS011;9211;48.818;9.312;2023-02-07T15:01:53;10.77;;;4.80;;
18172;SDS011;9211;48.818;9.312;2023-02-07T15:04:20;8.60;;;4.93;;
18172;SDS011;9211;48.818;9.312;2023-02-07T15:06:49;8.32;;;5.13;;
18172;SDS011;9211;48.818;9.312;2023-02-07T15:09:18;9.82;;;5.60;;
18172;SDS011;9211;48.818;9.312;2023-02-07T15:11:47;9.88;;;5.78;;
18172;SDS011;9211;48.818;9.312;2023-02-07T15:14:18;10.20;;;5.90;;
18172;SDS011;9211;48.818;9.312;2023-02-07T15:16:49;10.02;;;5.70;;
18172;SDS011;9211;48.818;9.312;2023-02-07T15:19:18;9.88;;;5.28;;
18172;SDS011;9211;48.818;9.312;2023-02-07T15:21:50;10.88;;;5.28;;